sensor_id;sensor_type;location;lat;lon;timestamp;pressure;altitude;pressure_sealevel;temperature;humidity
77017;BME280;65949;53.132;17.930;2023-01-25T00:02:26;103379.20;;;-0.47;73.31
77017;BME280;65949;53.132;17.930;2023-01-25T00:04:53;103373.12;;;-0.57;73.83
77017;BME280;65949;53.132;17.930;2023-01-25T00:07:20;103373.28;;;-0.62;73.84
77017;BME280;65949;53.132;17.930;2023-01-25T00:09:46;103373.73;;;-0.70;74.03
77017;BME280;65949;53.132;17.930;2023-01-25T00:12:13;103371.20;;;-0.77;74.23
77017;BME280;65949;53.132;17.930;2023-01-25T00:14:40;103365.22;;;-0.84;74.45
77017;BME280;65949;53.132;17.930;2023-01-25T00:17:07;103366.08;;;-0.86;74.48
77017;BME280;65949;53.132;17.930;2023-01-25T00:19:33;103359.06;;;-0.86;74.62
77017;BME280;65949;53.132;17.930;2023-01-25T00:22:00;103354.83;;;-0.84;74.81
77017;BME280;65949;53.132;17.930;2023-01-25T00:24:26;103353.13;;;-0.77;74.71
77017;BME280;65949;53.132;17.930;2023-01-25T00:26:53;103351.77;;;-0.71;74.79
77017;BME280;65949;53.132;17.930;2023-01-25T00:29:20;103349.80;;;-0.65;74.80
77017;BME280;65949;53.132;17.930;2023-01-25T00:32:01;103345.50;;;-0.62;74.63
77017;BME280;65949;53.132;17.930;2023-01-25T00:37:10;103340.83;;;-0.63;74.57
77017;BME280;65949;53.132;17.930;2023-01-25T00:39:40;103339.88;;;-0.67;74.81
77017;BME280;65949;53.132;17.930;2023-01-25T00:42:10;103335.31;;;-0.72;74.54
77017;BME280;65949;53.132;17.930;2023-01-25T00:44:37;103336.25;;;-0.80;74.78
77017;BME280;65949;53.132;17.930;2023-01-25T00:47:05;103331.54;;;-0.76;74.85
77017;BME280;65949;53.132;17.930;2023-01-25T00:49:34;103332.95;;;-0.73;74.84
77017;BME280;65949;53.132;17.930;2023-01-25T00:52:01;103328.11;;;-0.69;74.79
77017;BME280;65949;53.132;17.930;2023-01-25T00:54:28;103328.30;;;-0.67;74.77
77017;BME280;65949;53.132;17.930;2023-01-25T00:56:54;103331.97;;;-0.68;74.85
77017;BME280;65949;53.132;17.930;2023-01-25T00:59:22;103326.53;;;-0.73;74.73
77017;BME280;65949;53.132;17.930;2023-01-25T01:01:50;103324.59;;;-0.77;74.97
77017;BME280;65949;53.132;17.930;2023-01-25T01:04:18;103318.06;;;-0.79;74.76
77017;BME280;65949;53.132;17.930;2023-01-25T01:06:46;103315.95;;;-0.84;74.88
77017;BME280;65949;53.132;17.930;2023-01-25T01:09:15;103313.48;;;-0.86;74.90
77017;BME280;65949;53.132;17.930;2023-01-25T01:11:43;103309.92;;;-0.88;75.05
77017;BME280;65949;53.132;17.930;2023-01-25T01:14:10;103309.11;;;-0.91;75.22
77017;BME280;65949;53.132;17.930;2023-01-25T01:16:37;103307.11;;;-0.90;75.28
77017;BME280;65949;53.132;17.930;2023-01-25T01:19:04;103300.92;;;-0.87;75.18
77017;BME280;65949;53.132;17.930;2023-01-25T01:21:31;103300.56;;;-0.82;75.34
77017;BME280;65949;53.132;17.930;2023-01-25T01:23:58;103297.61;;;-0.79;75.35
77017;BME280;65949;53.132;17.930;2023-01-25T01:26:25;103298.88;;;-0.76;75.59
77017;BME280;65949;53.132;17.930;2023-01-25T01:28:51;103294.98;;;-0.67;75.59
77017;BME280;65949;53.132;17.930;2023-01-25T01:31:22;103287.60;;;-0.62;75.30
77017;BME280;65949;53.132;17.930;2023-01-25T01:34:25;103277.88;;;-0.60;75.22
77017;BME280;65949;53.132;17.930;2023-01-25T01:36:52;103274.13;;;-0.60;75.51
77017;BME280;65949;53.132;17.930;2023-01-25T01:39:19;103271.89;;;-0.60;75.36
77017;BME280;65949;53.132;17.930;2023-01-25T01:41:45;103274.34;;;-0.61;75.66
77017;BME280;65949;53.132;17.930;2023-01-25T01:44:16;103274.09;;;-0.59;75.52
77017;BME280;65949;53.132;17.930;2023-01-25T01:46:53;103275.20;;;-0.65;75.38
77017;BME280;65949;53.132;17.930;2023-01-25T01:49:30;103277.06;;;-0.63;75.64
77017;BME280;65949;53.132;17.930;2023-01-25T01:52:08;103277.02;;;-0.64;75.28
77017;BME280;65949;53.132;17.930;2023-01-25T01:54:42;103276.83;;;-0.66;75.38
77017;BME280;65949;53.132;17.930;2023-01-25T01:57:15;103278.76;;;-0.65;75.31
77017;BME280;65949;53.132;17.930;2023-01-25T02:02:40;103269.61;;;-0.63;75.18
77017;BME280;65949;53.132;17.930;2023-01-25T02:05:16;103264.13;;;-0.65;74.95
77017;BME280;65949;53.132;17.930;2023-01-25T02:07:48;103257.84;;;-0.70;75.12
77017;BME280;65949;53.132;17.930;2023-01-25T02:10:19;103252.74;;;-0.73;75.12
77017;BME280;65949;53.132;17.930;2023-01-25T02:12:47;103252.08;;;-0.75;75.31
77017;BME280;65949;53.132;17.930;2023-01-25T02:15:14;103251.09;;;-0.74;75.52
77017;BME280;65949;53.132;17.930;2023-01-25T02:17:41;103253.80;;;-0.75;75.42
77017;BME280;65949;53.132;17.930;2023-01-25T02:23:05;103256.64;;;-0.74;75.14
77017;BME280;65949;53.132;17.930;2023-01-25T02:25:35;103251.14;;;-0.79;74.95
77017;BME280;65949;53.132;17.930;2023-01-25T02:28:13;103249.48;;;-0.77;74.84
77017;BME280;65949;53.132;17.930;2023-01-25T02:30:43;103240.66;;;-0.84;74.31
77017;BME280;65949;53.132;17.930;2023-01-25T02:33:11;103237.63;;;-0.91;74.68
77017;BME280;65949;53.132;17.930;2023-01-25T02:35:44;103234.66;;;-0.97;75.08
77017;BME280;65949;53.132;17.930;2023-01-25T02:38:14;103231.77;;;-1.04;74.95
77017;BME280;65949;53.132;17.930;2023-01-25T02:40:52;103231.30;;;-1.03;75.42
77017;BME280;65949;53.132;17.930;2023-01-25T02:43:22;103220.06;;;-0.99;75.37
77017;BME280;65949;53.132;17.930;2023-01-25T02:45:57;103217.90;;;-0.99;75.33
77017;BME280;65949;53.132;17.930;2023-01-25T02:48:27;103220.10;;;-1.01;75.64
77017;BME280;65949;53.132;17.930;2023-01-25T02:50:53;103217.74;;;-1.02;75.45
77017;BME280;65949;53.132;17.930;2023-01-25T02:53:20;103209.80;;;-1.05;75.25
77017;BME280;65949;53.132;17.930;2023-01-25T02:55:47;103210.54;;;-1.08;75.41
77017;BME280;65949;53.132;17.930;2023-01-25T02:58:13;103212.53;;;-1.09;75.30
77017;BME280;65949;53.132;17.930;2023-01-25T03:00:41;103208.73;;;-1.11;75.37
77017;BME280;65949;53.132;17.930;2023-01-25T03:03:08;103207.67;;;-1.15;75.35
77017;BME280;65949;53.132;17.930;2023-01-25T03:05:35;103204.56;;;-1.17;75.49
77017;BME280;65949;53.132;17.930;2023-01-25T03:08:02;103206.32;;;-1.13;75.61
77017;BME280;65949;53.132;17.930;2023-01-25T03:10:28;103203.73;;;-1.10;75.50
77017;BME280;65949;53.132;17.930;2023-01-25T03:12:55;103198.90;;;-1.10;75.62
77017;BME280;65949;53.132;17.930;2023-01-25T03:15:22;103197.26;;;-1.13;75.71
77017;BME280;65949;53.132;17.930;2023-01-25T03:17:49;103194.77;;;-1.14;75.68
77017;BME280;65949;53.132;17.930;2023-01-25T03:20:17;103189.30;;;-1.13;75.89
77017;BME280;65949;53.132;17.930;2023-01-25T03:22:44;103187.52;;;-1.10;75.91
77017;BME280;65949;53.132;17.930;2023-01-25T03:25:11;103186.51;;;-1.08;75.86
77017;BME280;65949;53.132;17.930;2023-01-25T03:27:38;103189.95;;;-1.06;75.96
77017;BME280;65949;53.132;17.930;2023-01-25T03:30:08;103185.44;;;-1.08;76.06
77017;BME280;65949;53.132;17.930;2023-01-25T03:32:35;103177.71;;;-1.02;76.15
77017;BME280;65949;53.132;17.930;2023-01-25T03:35:09;103175.79;;;-0.95;76.00
77017;BME280;65949;53.132;17.930;2023-01-25T03:37:36;103175.29;;;-0.88;75.93
77017;BME280;65949;53.132;17.930;2023-01-25T03:40:03;103175.48;;;-0.82;75.61
77017;BME280;65949;53.132;17.930;2023-01-25T03:42:31;103171.91;;;-0.80;75.78
77017;BME280;65949;53.132;17.930;2023-01-25T03:44:58;103161.34;;;-0.74;75.78
77017;BME280;65949;53.132;17.930;2023-01-25T03:47:25;103154.77;;;-0.69;75.71
77017;BME280;65949;53.132;17.930;2023-01-25T03:49:51;103149.67;;;-0.71;75.12
77017;BME280;65949;53.132;17.930;2023-01-25T03:52:18;103141.54;;;-0.80;75.23
77017;BME280;65949;53.132;17.930;2023-01-25T03:54:46;103134.48;;;-0.84;75.47
77017;BME280;65949;53.132;17.930;2023-01-25T03:57:13;103128.77;;;-0.85;75.39
77017;BME280;65949;53.132;17.930;2023-01-25T03:59:53;103127.80;;;-0.92;75.45
77017;BME280;65949;53.132;17.930;2023-01-25T04:02:20;103123.98;;;-1.00;75.54
77017;BME280;65949;53.132;17.930;2023-01-25T04:04:46;103122.16;;;-0.97;75.73
77017;BME280;65949;53.132;17.930;2023-01-25T04:07:15;103118.67;;;-0.91;75.67
77017;BME280;65949;53.132;17.930;2023-01-25T04:09:42;103116.08;;;-0.91;75.71
77017;BME280;65949;53.132;17.930;2023-01-25T04:12:09;103115.33;;;-0.90;75.93
77017;BME280;65949;53.132;17.930;2023-01-25T04:14:37;103113.34;;;-0.91;75.69
77017;BME280;65949;53.132;17.930;2023-01-25T04:17:05;103113.31;;;-0.91;75.87
77017;BME280;65949;53.132;17.930;2023-01-25T04:19:54;103112.04;;;-0.87;75.80
77017;BME280;65949;53.132;17.930;2023-01-25T04:22:25;103107.08;;;-0.91;75.78
77017;BME280;65949;53.132;17.930;2023-01-25T04:24:52;103096.83;;;-0.98;75.81
77017;BME280;65949;53.132;17.930;2023-01-25T04:27:20;103093.35;;;-0.99;75.98
77017;BME280;65949;53.132;17.930;2023-01-25T04:29:55;103092.62;;;-0.99;76.00
77017;BME280;65949;53.132;17.930;2023-01-25T04:32:23;103094.60;;;-1.00;75.91
77017;BME280;65949;53.132;17.930;2023-01-25T04:34:50;103099.89;;;-1.00;75.97
77017;BME280;65949;53.132;17.930;2023-01-25T04:37:18;103097.42;;;-1.03;75.81
77017;BME280;65949;53.132;17.930;2023-01-25T04:39:54;103098.63;;;-1.06;75.49
77017;BME280;65949;53.132;17.930;2023-01-25T04:42:21;103094.27;;;-1.07;75.66
77017;BME280;65949;53.132;17.930;2023-01-25T04:44:51;103091.02;;;-1.06;75.65
77017;BME280;65949;53.132;17.930;2023-01-25T04:47:18;103091.98;;;-1.08;75.77
77017;BME280;65949;53.132;17.930;2023-01-25T04:49:44;103093.48;;;-1.05;75.77
77017;BME280;65949;53.132;17.930;2023-01-25T04:52:12;103090.36;;;-1.02;75.85
77017;BME280;65949;53.132;17.930;2023-01-25T04:54:39;103091.24;;;-1.01;75.89
77017;BME280;65949;53.132;17.930;2023-01-25T04:57:06;103087.95;;;-1.04;75.77
77017;BME280;65949;53.132;17.930;2023-01-25T04:59:33;103089.20;;;-1.07;75.83
77017;BME280;65949;53.132;17.930;2023-01-25T05:01:59;103090.89;;;-1.11;75.59
77017;BME280;65949;53.132;17.930;2023-01-25T05:04:27;103089.58;;;-1.19;75.85
77017;BME280;65949;53.132;17.930;2023-01-25T05:06:54;103089.02;;;-1.23;75.92
77017;BME280;65949;53.132;17.930;2023-01-25T05:09:20;103088.16;;;-1.24;76.08
77017;BME280;65949;53.132;17.930;2023-01-25T05:11:47;103091.41;;;-1.25;76.08
77017;BME280;65949;53.132;17.930;2023-01-25T05:14:34;103089.62;;;-1.21;75.97
77017;BME280;65949;53.132;17.930;2023-01-25T05:17:01;103092.34;;;-1.21;76.11
77017;BME280;65949;53.132;17.930;2023-01-25T05:19:28;103089.69;;;-1.20;76.23
77017;BME280;65949;53.132;17.930;2023-01-25T05:22:01;103088.80;;;-1.18;76.10
77017;BME280;65949;53.132;17.930;2023-01-25T05:24:35;103086.21;;;-1.17;76.27
77017;BME280;65949;53.132;17.930;2023-01-25T05:27:04;103091.11;;;-1.14;76.38
77017;BME280;65949;53.132;17.930;2023-01-25T05:30:07;103088.93;;;-1.15;76.03
77017;BME280;65949;53.132;17.930;2023-01-25T05:32:41;103084.69;;;-1.13;76.42
77017;BME280;65949;53.132;17.930;2023-01-25T05:35:08;103085.50;;;-1.10;76.27
77017;BME280;65949;53.132;17.930;2023-01-25T05:37:35;103090.83;;;-1.10;76.12
77017;BME280;65949;53.132;17.930;2023-01-25T05:40:05;103089.98;;;-1.13;76.26
77017;BME280;65949;53.132;17.930;2023-01-25T05:42:35;103090.69;;;-1.13;76.25
77017;BME280;65949;53.132;17.930;2023-01-25T05:45:03;103085.36;;;-1.13;76.52
77017;BME280;65949;53.132;17.930;2023-01-25T05:47:30;103082.91;;;-1.08;76.47
77017;BME280;65949;53.132;17.930;2023-01-25T05:49:57;103080.89;;;-1.01;76.42
77017;BME280;65949;53.132;17.930;2023-01-25T05:52:33;103077.58;;;-0.98;76.16
77017;BME280;65949;53.132;17.930;2023-01-25T05:54:59;103080.80;;;-0.98;76.22
77017;BME280;65949;53.132;17.930;2023-01-25T05:57:26;103080.14;;;-0.98;75.83
77017;BME280;65949;53.132;17.930;2023-01-25T05:59:54;103085.45;;;-1.03;75.87
77017;BME280;65949;53.132;17.930;2023-01-25T06:02:21;103085.27;;;-1.05;76.01
77017;BME280;65949;53.132;17.930;2023-01-25T06:04:47;103087.25;;;-1.06;76.13
77017;BME280;65949;53.132;17.930;2023-01-25T06:07:14;103083.95;;;-1.04;76.12
77017;BME280;65949;53.132;17.930;2023-01-25T06:09:41;103076.05;;;-1.03;76.16
77017;BME280;65949;53.132;17.930;2023-01-25T06:12:08;103074.35;;;-1.03;76.19
77017;BME280;65949;53.132;17.930;2023-01-25T06:14:36;103074.59;;;-1.01;76.17
77017;BME280;65949;53.132;17.930;2023-01-25T06:17:03;103071.26;;;-1.02;76.26
77017;BME280;65949;53.132;17.930;2023-01-25T06:19:59;103074.23;;;-1.06;76.20
77017;BME280;65949;53.132;17.930;2023-01-25T06:22:35;103070.86;;;-1.11;76.23
77017;BME280;65949;53.132;17.930;2023-01-25T06:25:02;103068.70;;;-1.13;76.42
77017;BME280;65949;53.132;17.930;2023-01-25T06:27:28;103064.64;;;-1.16;76.20
77017;BME280;65949;53.132;17.930;2023-01-25T06:29:55;103069.27;;;-1.14;76.30
77017;BME280;65949;53.132;17.930;2023-01-25T06:32:22;103068.03;;;-1.09;76.54
77017;BME280;65949;53.132;17.930;2023-01-25T06:34:51;103066.46;;;-1.02;76.39
77017;BME280;65949;53.132;17.930;2023-01-25T06:37:20;103068.27;;;-0.97;76.54
77017;BME280;65949;53.132;17.930;2023-01-25T06:39:48;103069.75;;;-0.90;76.47
77017;BME280;65949;53.132;17.930;2023-01-25T06:42:15;103069.66;;;-0.86;76.46
77017;BME280;65949;53.132;17.930;2023-01-25T06:44:42;103062.69;;;-0.85;76.40
77017;BME280;65949;53.132;17.930;2023-01-25T06:47:09;103057.36;;;-0.86;76.62
77017;BME280;65949;53.132;17.930;2023-01-25T06:49:36;103056.46;;;-0.86;76.70
77017;BME280;65949;53.132;17.930;2023-01-25T06:52:03;103053.04;;;-0.86;76.64
77017;BME280;65949;53.132;17.930;2023-01-25T06:54:30;103051.48;;;-0.88;76.73
77017;BME280;65949;53.132;17.930;2023-01-25T06:56:56;103047.45;;;-0.86;76.65
77017;BME280;65949;53.132;17.930;2023-01-25T06:59:23;103043.23;;;-0.87;76.50
77017;BME280;65949;53.132;17.930;2023-01-25T07:01:50;103041.58;;;-0.92;76.53
77017;BME280;65949;53.132;17.930;2023-01-25T07:04:16;103037.55;;;-0.95;76.68
77017;BME280;65949;53.132;17.930;2023-01-25T07:06:43;103040.38;;;-0.94;76.74
77017;BME280;65949;53.132;17.930;2023-01-25T07:09:13;103039.83;;;-0.91;76.72
77017;BME280;65949;53.132;17.930;2023-01-25T07:11:40;103044.38;;;-0.84;76.82
77017;BME280;65949;53.132;17.930;2023-01-25T07:14:07;103044.36;;;-0.77;76.52
77017;BME280;65949;53.132;17.930;2023-01-25T07:16:33;103041.19;;;-0.74;76.64
77017;BME280;65949;53.132;17.930;2023-01-25T07:19:10;103035.98;;;-0.71;76.57
77017;BME280;65949;53.132;17.930;2023-01-25T07:21:38;103033.86;;;-0.70;76.61
77017;BME280;65949;53.132;17.930;2023-01-25T07:24:05;103031.02;;;-0.73;76.49
77017;BME280;65949;53.132;17.930;2023-01-25T07:26:32;103023.05;;;-0.73;76.69
77017;BME280;65949;53.132;17.930;2023-01-25T07:28:59;103018.61;;;-0.75;76.65
77017;BME280;65949;53.132;17.930;2023-01-25T07:31:26;103018.85;;;-0.79;76.53
77017;BME280;65949;53.132;17.930;2023-01-25T07:33:55;103018.02;;;-0.83;76.65
77017;BME280;65949;53.132;17.930;2023-01-25T07:36:22;103012.24;;;-0.88;76.61
77017;BME280;65949;53.132;17.930;2023-01-25T07:38:54;103010.59;;;-0.95;76.65
77017;BME280;65949;53.132;17.930;2023-01-25T07:41:21;103012.56;;;-0.94;76.77
77017;BME280;65949;53.132;17.930;2023-01-25T07:43:49;103014.20;;;-0.91;76.78
77017;BME280;65949;53.132;17.930;2023-01-25T07:46:27;103011.97;;;-0.82;76.81
77017;BME280;65949;53.132;17.930;2023-01-25T07:48:54;103006.23;;;-0.77;76.71
77017;BME280;65949;53.132;17.930;2023-01-25T07:51:24;103002.30;;;-0.70;76.63
77017;BME280;65949;53.132;17.930;2023-01-25T07:53:57;103001.58;;;-0.63;76.58
77017;BME280;65949;53.132;17.930;2023-01-25T07:56:30;102997.29;;;-0.61;76.37
77017;BME280;65949;53.132;17.930;2023-01-25T07:58:58;102993.92;;;-0.64;76.34
77017;BME280;65949;53.132;17.930;2023-01-25T08:01:27;102987.58;;;-0.63;76.47
77017;BME280;65949;53.132;17.930;2023-01-25T08:03:55;102984.20;;;-0.66;76.46
77017;BME280;65949;53.132;17.930;2023-01-25T08:06:24;102988.11;;;-0.74;76.54
77017;BME280;65949;53.132;17.930;2023-01-25T08:08:53;102989.15;;;-0.79;76.66
77017;BME280;65949;53.132;17.930;2023-01-25T08:11:23;102990.30;;;-0.82;76.68
77017;BME280;65949;53.132;17.930;2023-01-25T08:13:51;102987.23;;;-0.85;76.58
77017;BME280;65949;53.132;17.930;2023-01-25T08:16:20;102979.15;;;-0.82;76.58
77017;BME280;65949;53.132;17.930;2023-01-25T08:18:51;102978.48;;;-0.80;76.31
77017;BME280;65949;53.132;17.930;2023-01-25T08:21:18;102980.22;;;-0.86;76.28
77017;BME280;65949;53.132;17.930;2023-01-25T08:23:46;102978.05;;;-0.89;76.43
77017;BME280;65949;53.132;17.930;2023-01-25T08:26:13;102978.40;;;-0.91;76.48
77017;BME280;65949;53.132;17.930;2023-01-25T08:28:42;102974.48;;;-0.88;76.66
77017;BME280;65949;53.132;17.930;2023-01-25T08:31:10;102969.41;;;-0.84;76.76
77017;BME280;65949;53.132;17.930;2023-01-25T08:33:38;102964.88;;;-0.78;76.83
77017;BME280;65949;53.132;17.930;2023-01-25T08:36:05;102968.14;;;-0.72;76.78
77017;BME280;65949;53.132;17.930;2023-01-25T08:38:36;102970.67;;;-0.76;76.44
77017;BME280;65949;53.132;17.930;2023-01-25T08:41:04;102971.19;;;-0.78;76.70
77017;BME280;65949;53.132;17.930;2023-01-25T08:43:32;102964.41;;;-0.77;76.89
77017;BME280;65949;53.132;17.930;2023-01-25T08:45:59;102962.11;;;-0.72;76.77
77017;BME280;65949;53.132;17.930;2023-01-25T08:48:26;102962.64;;;-0.70;76.93
77017;BME280;65949;53.132;17.930;2023-01-25T08:50:53;102955.80;;;-0.69;76.68
77017;BME280;65949;53.132;17.930;2023-01-25T08:53:20;102955.73;;;-0.70;76.71
77017;BME280;65949;53.132;17.930;2023-01-25T08:55:48;102954.88;;;-0.66;76.64
77017;BME280;65949;53.132;17.930;2023-01-25T08:58:16;102960.95;;;-0.68;76.54
77017;BME280;65949;53.132;17.930;2023-01-25T09:00:45;102962.52;;;-0.68;76.52
77017;BME280;65949;53.132;17.930;2023-01-25T09:03:11;102966.00;;;-0.71;76.77
77017;BME280;65949;53.132;17.930;2023-01-25T09:05:38;102965.33;;;-0.67;76.79
77017;BME280;65949;53.132;17.930;2023-01-25T09:08:07;102964.36;;;-0.59;76.63
77017;BME280;65949;53.132;17.930;2023-01-25T09:10:35;102959.83;;;-0.56;76.35
77017;BME280;65949;53.132;17.930;2023-01-25T09:13:02;102959.89;;;-0.59;76.51
77017;BME280;65949;53.132;17.930;2023-01-25T09:15:29;102958.56;;;-0.57;76.59
77017;BME280;65949;53.132;17.930;2023-01-25T09:17:56;102953.20;;;-0.60;76.38
77017;BME280;65949;53.132;17.930;2023-01-25T09:20:23;102950.66;;;-0.69;76.46
77017;BME280;65949;53.132;17.930;2023-01-25T09:22:50;102948.60;;;-0.75;76.71
77017;BME280;65949;53.132;17.930;2023-01-25T09:25:16;102948.10;;;-0.73;76.64
77017;BME280;65949;53.132;17.930;2023-01-25T09:27:43;102949.45;;;-0.71;76.46
77017;BME280;65949;53.132;17.930;2023-01-25T09:30:10;102946.75;;;-0.67;76.35
77017;BME280;65949;53.132;17.930;2023-01-25T09:32:37;102943.89;;;-0.64;76.24
77017;BME280;65949;53.132;17.930;2023-01-25T09:35:05;102936.86;;;-0.61;76.32
77017;BME280;65949;53.132;17.930;2023-01-25T09:37:31;102935.38;;;-0.60;76.28
77017;BME280;65949;53.132;17.930;2023-01-25T09:39:58;102937.58;;;-0.64;76.18
77017;BME280;65949;53.132;17.930;2023-01-25T09:42:42;102933.19;;;-0.68;76.42
77017;BME280;65949;53.132;17.930;2023-01-25T09:45:34;102926.14;;;-0.72;76.53
77017;BME280;65949;53.132;17.930;2023-01-25T09:48:09;102923.19;;;-0.71;76.75
77017;BME280;65949;53.132;17.930;2023-01-25T09:53:29;102922.58;;;-0.74;76.80
77017;BME280;65949;53.132;17.930;2023-01-25T09:56:03;102917.02;;;-0.73;76.65
77017;BME280;65949;53.132;17.930;2023-01-25T09:58:38;102920.93;;;-0.71;76.57
77017;BME280;65949;53.132;17.930;2023-01-25T10:01:31;102921.92;;;-0.66;76.73
77017;BME280;65949;53.132;17.930;2023-01-25T10:04:04;102918.51;;;-0.56;76.59
77017;BME280;65949;53.132;17.930;2023-01-25T10:06:40;102922.54;;;-0.49;76.59
77017;BME280;65949;53.132;17.930;2023-01-25T10:12:14;102912.84;;;-0.37;76.56
77017;BME280;65949;53.132;17.930;2023-01-25T10:14:41;102905.10;;;-0.36;76.48
77017;BME280;65949;53.132;17.930;2023-01-25T10:17:15;102910.34;;;-0.40;76.44
77017;BME280;65949;53.132;17.930;2023-01-25T10:22:28;102908.33;;;-0.38;76.28
77017;BME280;65949;53.132;17.930;2023-01-25T10:28:14;102898.33;;;-0.48;76.52
77017;BME280;65949;53.132;17.930;2023-01-25T10:30:49;102887.44;;;-0.40;76.42
77017;BME280;65949;53.132;17.930;2023-01-25T10:33:19;102882.23;;;-0.31;76.61
77017;BME280;65949;53.132;17.930;2023-01-25T10:35:48;102881.29;;;-0.20;76.75
77017;BME280;65949;53.132;17.930;2023-01-25T10:38:45;102879.95;;;-0.10;76.30
77017;BME280;65949;53.132;17.930;2023-01-25T10:41:24;102871.45;;;-0.04;75.98
77017;BME280;65949;53.132;17.930;2023-01-25T10:43:53;102862.90;;;-0.04;76.33
77017;BME280;65949;53.132;17.930;2023-01-25T10:46:39;102855.23;;;-0.08;76.11
77017;BME280;65949;53.132;17.930;2023-01-25T10:49:40;102854.61;;;-0.11;76.16
77017;BME280;65949;53.132;17.930;2023-01-25T10:52:17;102850.54;;;-0.12;75.98
77017;BME280;65949;53.132;17.930;2023-01-25T10:54:46;102846.37;;;-0.17;75.71
77017;BME280;65949;53.132;17.930;2023-01-25T10:57:18;102837.27;;;-0.22;75.57
77017;BME280;65949;53.132;17.930;2023-01-25T10:59:48;102826.62;;;-0.31;75.64
77017;BME280;65949;53.132;17.930;2023-01-25T11:05:34;102819.67;;;-0.42;75.99
77017;BME280;65949;53.132;17.930;2023-01-25T11:08:39;102821.79;;;-0.49;76.26
77017;BME280;65949;53.132;17.930;2023-01-25T11:11:33;102819.88;;;-0.47;76.49
77017;BME280;65949;53.132;17.930;2023-01-25T11:14:14;102813.71;;;-0.38;76.54
77017;BME280;65949;53.132;17.930;2023-01-25T11:16:45;102807.45;;;-0.29;76.25
77017;BME280;65949;53.132;17.930;2023-01-25T11:21:53;102802.96;;;-0.21;76.00
77017;BME280;65949;53.132;17.930;2023-01-25T11:24:27;102794.20;;;-0.26;75.88
77017;BME280;65949;53.132;17.930;2023-01-25T11:27:33;102789.77;;;-0.28;76.22
77017;BME280;65949;53.132;17.930;2023-01-25T11:30:16;102785.71;;;-0.31;75.99
77017;BME280;65949;53.132;17.930;2023-01-25T11:32:46;102785.38;;;-0.31;76.18
77017;BME280;65949;53.132;17.930;2023-01-25T11:35:15;102782.72;;;-0.28;76.15
77017;BME280;65949;53.132;17.930;2023-01-25T11:38:00;102776.44;;;-0.30;75.83
77017;BME280;65949;53.132;17.930;2023-01-25T11:57:20;102737.44;;;-0.06;75.41
77017;BME280;65949;53.132;17.930;2023-01-25T12:02:52;102735.36;;;-0.09;75.53
77017;BME280;65949;53.132;17.930;2023-01-25T12:10:55;102723.73;;;-0.41;75.73
77017;BME280;65949;53.132;17.930;2023-01-25T12:24:39;102689.54;;;-0.29;76.02
77017;BME280;65949;53.132;17.930;2023-01-25T12:33:19;102676.45;;;-0.17;76.14
77017;BME280;65949;53.132;17.930;2023-01-25T12:36:12;102674.52;;;-0.15;75.92
77017;BME280;65949;53.132;17.930;2023-01-25T12:42:14;102657.28;;;-0.09;75.77
77017;BME280;65949;53.132;17.930;2023-01-25T12:44:46;102654.55;;;-0.17;75.47
77017;BME280;65949;53.132;17.930;2023-01-25T12:47:55;102649.25;;;-0.29;75.68
77017;BME280;65949;53.132;17.930;2023-01-25T12:50:29;102653.32;;;-0.30;75.70
77017;BME280;65949;53.132;17.930;2023-01-25T12:55:48;102650.54;;;-0.34;75.83
77017;BME280;65949;53.132;17.930;2023-01-25T12:58:51;102645.40;;;-0.29;75.84
77017;BME280;65949;53.132;17.930;2023-01-25T13:01:34;102635.98;;;-0.24;75.97
77017;BME280;65949;53.132;17.930;2023-01-25T13:09:34;102620.23;;;-0.37;75.49
77017;BME280;65949;53.132;17.930;2023-01-25T13:12:10;102615.56;;;-0.40;75.89
77017;BME280;65949;53.132;17.930;2023-01-25T13:14:40;102611.08;;;-0.41;75.79
77017;BME280;65949;53.132;17.930;2023-01-25T13:19:53;102596.67;;;-0.41;76.00
77017;BME280;65949;53.132;17.930;2023-01-25T13:27:42;102587.95;;;-0.33;75.74
77017;BME280;65949;53.132;17.930;2023-01-25T13:38:42;102582.27;;;-0.59;76.62
77017;BME280;65949;53.132;17.930;2023-01-25T13:40:43;102575.23;;;-0.57;76.54
77017;BME280;65949;53.132;17.930;2023-01-25T13:43:18;102573.92;;;-0.53;76.61
77017;BME280;65949;53.132;17.930;2023-01-25T13:45:48;102574.51;;;-0.50;76.53
77017;BME280;65949;53.132;17.930;2023-01-25T13:48:21;102573.70;;;-0.47;76.79
77017;BME280;65949;53.132;17.930;2023-01-25T13:50:52;102572.33;;;-0.41;76.69
77017;BME280;65949;53.132;17.930;2023-01-25T13:53:23;102567.68;;;-0.39;76.67
77017;BME280;65949;53.132;17.930;2023-01-25T13:55:53;102561.20;;;-0.37;76.70
77017;BME280;65949;53.132;17.930;2023-01-25T13:59:06;102560.09;;;-0.36;76.87
77017;BME280;65949;53.132;17.930;2023-01-25T14:01:15;102558.38;;;-0.38;76.79
77017;BME280;65949;53.132;17.930;2023-01-25T14:06:20;102554.27;;;-0.46;76.82
77017;BME280;65949;53.132;17.930;2023-01-25T14:08:48;102550.20;;;-0.46;76.82
77017;BME280;65949;53.132;17.930;2023-01-25T14:11:25;102543.05;;;-0.46;76.85
77017;BME280;65949;53.132;17.930;2023-01-25T14:14:26;102538.83;;;-0.43;76.92
77017;BME280;65949;53.132;17.930;2023-01-25T14:19:28;102537.50;;;-0.38;76.89
77017;BME280;65949;53.132;17.930;2023-01-25T14:24:40;102530.65;;;-0.28;76.86
77017;BME280;65949;53.132;17.930;2023-01-25T14:27:12;102528.42;;;-0.22;76.66
77017;BME280;65949;53.132;17.930;2023-01-25T14:29:40;102524.38;;;-0.32;76.28
77017;BME280;65949;53.132;17.930;2023-01-25T14:32:15;102521.67;;;-0.44;76.68
77017;BME280;65949;53.132;17.930;2023-01-25T14:34:43;102515.55;;;-0.50;76.86
77017;BME280;65949;53.132;17.930;2023-01-25T14:37:15;102510.27;;;-0.58;76.84
77017;BME280;65949;53.132;17.930;2023-01-25T14:39:44;102508.33;;;-0.59;77.15
77017;BME280;65949;53.132;17.930;2023-01-25T14:42:11;102506.05;;;-0.58;77.15
77017;BME280;65949;53.132;17.930;2023-01-25T14:44:39;102507.90;;;-0.58;77.29